Time;durP1;ratioP1;P1;durP2;ratioP2;P2;SDS_P1;SDS_P2;PMS_P1;PMS_P2;Temp;Humidity;BMP_temperature;BMP_pressure;BME280_temperature;BME280_humidity;BME280_pressure;Samples;Min_cycle;Max_cycle;Signal;HPM_P1;HPM_P2
2022/09/12 00:02:11;;;;;;;;;;;16.10;99.90;;;;;;5073927;28;20414;-82
2022/09/12 00:04:36;;;;;;;;;;;16.10;99.90;;;;;;5075369;28;19908;-82
2022/09/12 00:07:02;;;;;;;;;;;16.10;99.90;;;;;;5074610;28;20363;-82
2022/09/12 00:09:27;;;;;;;;;;;16.10;99.90;;;;;;5073789;28;19916;-82
2022/09/12 00:11:53;;;;;;;;;;;16.10;99.90;;;;;;5073576;28;20015;-82
2022/09/12 00:14:18;;;;;;;;;;;16.00;99.90;;;;;;5075029;28;19915;-82
2022/09/12 00:16:44;;;;;;;;;;;16.00;99.90;;;;;;5072738;28;19909;-82
2022/09/12 00:19:10;;;;;;;;;;;16.00;99.90;;;;;;5073479;28;20326;-83
2022/09/12 00:21:37;;;;;;;;;;;16.00;99.90;;;;;;5073417;28;20003;-82
2022/09/12 00:24:03;;;;;;;;;;;15.90;99.90;;;;;;5074616;28;19916;-82
2022/09/12 00:26:29;;;;;;;;;;;15.90;99.90;;;;;;5072621;28;20451;-82
2022/09/12 00:28:54;;;;;;;;;;;16.00;99.90;;;;;;5073153;28;19952;-83
2022/09/12 00:31:22;;;;;;;;;;;15.90;99.90;;;;;;5074385;28;19960;-82
2022/09/12 00:33:48;;;;;;;;;;;15.90;99.90;;;;;;5074395;28;19915;-83
2022/09/12 00:36:21;;;;;;;;;;;15.90;99.90;;;;;;5072460;28;20371;-82
2022/09/12 00:38:47;;;;;;;;;;;15.90;99.90;;;;;;5072922;28;19908;-82
2022/09/12 00:41:17;;;;;;;;;;;15.90;99.90;;;;;;5074360;28;19915;-82
2022/09/12 00:43:44;;;;;;;;;;;15.90;99.90;;;;;;5072853;28;19908;-82
2022/09/12 00:46:15;;;;;;;;;;;15.80;99.90;;;;;;5072214;28;19908;-82
2022/09/12 00:48:47;;;;;;;;;;;15.80;99.90;;;;;;5073734;28;19943;-82
2022/09/12 00:51:13;;;;;;;;;;;15.80;99.90;;;;;;5074047;28;19924;-82
2022/09/12 00:53:40;;;;;;;;;;;15.90;99.90;;;;;;5072817;28;20371;-82
2022/09/12 00:56:06;;;;;;;;;;;15.80;99.90;;;;;;5072049;28;20352;-82
2022/09/12 00:58:36;;;;;;;;;;;15.80;99.90;;;;;;5072596;28;19958;-82
2022/09/12 01:01:02;;;;;;;;;;;15.80;99.90;;;;;;5072376;28;19957;-82
2022/09/12 01:03:27;;;;;;;;;;;15.80;99.90;;;;;;5072459;28;20010;-83
2022/09/12 01:05:56;;;;;;;;;;;15.80;99.90;;;;;;5071694;28;19920;-82
2022/09/12 01:08:21;;;;;;;;;;;15.80;99.90;;;;;;5073688;28;19913;-82
2022/09/12 01:10:47;;;;;;;;;;;15.70;99.90;;;;;;5073571;28;19931;-83
2022/09/12 01:13:13;;;;;;;;;;;15.70;99.90;;;;;;5072299;28;20376;-82
2022/09/12 01:15:39;;;;;;;;;;;15.80;99.90;;;;;;5072860;28;19909;-83
2022/09/12 01:18:07;;;;;;;;;;;15.70;99.90;;;;;;5073324;28;19915;-82
2022/09/12 01:20:45;;;;;;;;;;;15.70;99.90;;;;;;5072106;28;19912;-82
2022/09/12 01:23:13;;;;;;;;;;;15.70;99.90;;;;;;5073454;28;19912;-82
2022/09/12 01:25:39;;;;;;;;;;;15.70;99.90;;;;;;5072727;28;20290;-82
2022/09/12 01:28:10;;;;;;;;;;;15.60;99.90;;;;;;5071915;28;20008;-82
2022/09/12 01:30:42;;;;;;;;;;;15.60;99.90;;;;;;5071913;28;20402;-83
2022/09/12 01:33:16;;;;;;;;;;;15.70;99.90;;;;;;5073034;28;20329;-82
2022/09/12 01:35:42;;;;;;;;;;;15.60;99.90;;;;;;5072530;28;20256;-83
2022/09/12 01:38:10;;;;;;;;;;;15.60;99.90;;;;;;5071918;28;19916;-83
2022/09/12 01:40:36;;;;;;;;;;;15.60;99.90;;;;;;5071731;28;19913;-82
2022/09/12 01:43:14;;;;;;;;;;;15.70;99.90;;;;;;5072951;28;19966;-82
2022/09/12 01:45:46;;;;;;;;;;;15.60;99.90;;;;;;5072326;28;20284;-83
2022/09/12 01:48:14;;;;;;;;;;;15.60;99.90;;;;;;5072927;28;19913;-82
2022/09/12 01:50:44;;;;;;;;;;;15.70;99.90;;;;;;5072486;28;19917;-82
2022/09/12 01:53:19;;;;;;;;;;;15.60;99.90;;;;;;5072557;28;20007;-82
2022/09/12 01:55:48;;;;;;;;;;;15.60;99.90;;;;;;5070853;28;19936;-83
2022/09/12 01:58:21;;;;;;;;;;;15.60;99.90;;;;;;5072509;28;19915;-82
2022/09/12 02:01:07;;;;;;;;;;;15.60;99.90;;;;;;5071460;28;20303;-83
2022/09/12 02:03:37;;;;;;;;;;;15.60;99.90;;;;;;5061461;28;20261;-82
2022/09/12 02:06:06;;;;;;;;;;;15.60;99.90;;;;;;5070591;28;19912;-82
2022/09/12 02:08:34;;;;;;;;;;;15.60;99.90;;;;;;5072486;28;19913;-82
2022/09/12 02:11:06;;;;;;;;;;;15.60;99.90;;;;;;5070737;28;19908;-83
2022/09/12 02:13:33;;;;;;;;;;;15.60;99.90;;;;;;5071256;28;19969;-83
2022/09/12 02:16:03;;;;;;;;;;;15.60;99.90;;;;;;5070482;28;19912;-83
2022/09/12 02:18:30;;;;;;;;;;;15.60;99.90;;;;;;5071289;28;20439;-82
2022/09/12 02:20:56;;;;;;;;;;;15.60;99.90;;;;;;5072393;28;19908;-82
2022/09/12 02:23:23;;;;;;;;;;;15.60;99.90;;;;;;5072478;28;19920;-82
2022/09/12 02:25:52;;;;;;;;;;;15.60;99.90;;;;;;5070448;28;19908;-83
2022/09/12 02:28:44;;;;;;;;;;;15.60;99.90;;;;;;5072242;28;19908;-83
2022/09/12 02:31:10;;;;;;;;;;;15.60;99.90;;;;;;5066910;28;20342;-83
2022/09/12 02:33:35;;;;;;;;;;;15.60;99.90;;;;;;5072559;28;19944;-83
2022/09/12 02:36:23;;;;;;;;;;;15.60;99.90;;;;;;5071797;28;19939;-83
2022/09/12 02:38:49;;;;;;;;;;;15.60;99.90;;;;;;5072752;28;19955;-82
2022/09/12 02:41:17;;;;;;;;;;;15.60;99.90;;;;;;5073313;28;19909;-82
2022/09/12 02:43:43;;;;;;;;;;;15.60;99.90;;;;;;5073488;28;19909;-83
2022/09/12 02:46:12;;;;;;;;;;;15.60;99.90;;;;;;5071037;28;20012;-83
2022/09/12 02:48:39;;;;;;;;;;;15.60;99.90;;;;;;5073563;28;20391;-83
2022/09/12 02:51:05;;;;;;;;;;;15.50;99.90;;;;;;5074033;28;20331;-82
2022/09/12 02:53:30;;;;;;;;;;;15.50;99.90;;;;;;5073208;28;19948;-83
2022/09/12 02:55:56;;;;;;;;;;;15.60;99.90;;;;;;5071257;28;19963;-82
2022/09/12 02:58:22;;;;;;;;;;;15.60;99.90;;;;;;5073188;28;19908;-82
2022/09/12 03:01:07;;;;;;;;;;;15.60;99.90;;;;;;5072051;28;19909;-83
2022/09/12 03:03:51;;;;;;;;;;;15.50;99.90;;;;;;5073184;28;20062;-82
2022/09/12 03:06:23;;;;;;;;;;;15.60;99.90;;;;;;5070866;28;19940;-82
2022/09/12 03:09:05;;;;;;;;;;;15.60;99.90;;;;;;5071700;28;19909;-82
2022/09/12 03:11:30;;;;;;;;;;;15.60;99.90;;;;;;5072151;28;19964;-82
2022/09/12 03:14:08;;;;;;;;;;;15.60;99.90;;;;;;5071760;28;20316;-82
2022/09/12 03:16:44;;;;;;;;;;;15.50;99.90;;;;;;5071146;28;19915;-83
2022/09/12 03:19:28;;;;;;;;;;;15.50;99.90;;;;;;5073426;28;19908;-82
2022/09/12 03:22:22;;;;;;;;;;;15.50;99.90;;;;;;5073302;28;20361;-82
2022/09/12 03:24:52;;;;;;;;;;;15.50;99.90;;;;;;5062904;28;19923;-82
2022/09/12 03:27:21;;;;;;;;;;;15.50;99.90;;;;;;5074819;28;19912;-83
2022/09/12 03:29:47;;;;;;;;;;;15.50;99.90;;;;;;5076833;28;19909;-83
2022/09/12 03:32:12;;;;;;;;;;;15.50;99.90;;;;;;5076052;28;20000;-83
2022/09/12 03:34:38;;;;;;;;;;;15.50;99.90;;;;;;5075711;28;19909;-83
2022/09/12 03:37:04;;;;;;;;;;;15.40;99.90;;;;;;5074719;28;19963;-83
2022/09/12 03:39:29;;;;;;;;;;;15.40;99.90;;;;;;5075337;28;20378;-83
2022/09/12 03:41:55;;;;;;;;;;;15.40;99.90;;;;;;5076793;28;19912;-83
2022/09/12 03:44:20;;;;;;;;;;;15.30;99.90;;;;;;5075817;28;19916;-83
2022/09/12 03:46:46;;;;;;;;;;;15.30;99.90;;;;;;5076123;28;19908;-83
2022/09/12 03:49:12;;;;;;;;;;;15.30;99.90;;;;;;5077012;28;19962;-84
2022/09/12 03:51:38;;;;;;;;;;;15.30;99.90;;;;;;5077095;28;20280;-83
2022/09/12 03:54:04;;;;;;;;;;;15.30;99.90;;;;;;5077239;28;19916;-83
2022/09/12 03:56:29;;;;;;;;;;;15.30;99.90;;;;;;5076704;28;19915;-83
2022/09/12 03:58:55;;;;;;;;;;;15.30;99.90;;;;;;5077101;28;19999;-83
2022/09/12 04:01:20;;;;;;;;;;;15.30;99.90;;;;;;5075434;28;19971;-83
2022/09/12 04:03:47;;;;;;;;;;;15.30;99.90;;;;;;5075699;28;19931;-83
2022/09/12 04:06:14;;;;;;;;;;;15.20;99.90;;;;;;5074591;28;19999;-83
2022/09/12 04:08:39;;;;;;;;;;;15.20;99.90;;;;;;5075429;28;20277;-83
2022/09/12 04:11:07;;;;;;;;;;;15.20;99.90;;;;;;5075865;28;19915;-83
2022/09/12 04:13:33;;;;;;;;;;;15.20;99.90;;;;;;5075482;28;19930;-83
2022/09/12 04:15:59;;;;;;;;;;;15.20;99.90;;;;;;5076368;28;19915;-83
2022/09/12 04:18:25;;;;;;;;;;;15.20;99.90;;;;;;5076690;28;19908;-83
2022/09/12 04:20:50;;;;;;;;;;;15.20;99.90;;;;;;5074901;28;19909;-83
2022/09/12 04:23:16;;;;;;;;;;;15.20;99.90;;;;;;5074935;28;19909;-83
2022/09/12 04:25:41;;;;;;;;;;;15.20;99.90;;;;;;5074279;28;19955;-83
2022/09/12 04:28:06;;;;;;;;;;;15.20;99.90;;;;;;5074993;28;19962;-83
2022/09/12 04:30:33;;;;;;;;;;;15.10;99.90;;;;;;5074911;28;19952;-83
2022/09/12 04:32:58;;;;;;;;;;;15.20;99.90;;;;;;5076221;28;19912;-83
2022/09/12 04:35:24;;;;;;;;;;;15.20;99.90;;;;;;5074071;28;19908;-83
2022/09/12 04:37:49;;;;;;;;;;;15.20;99.90;;;;;;5074036;28;19915;-83
2022/09/12 04:40:15;;;;;;;;;;;15.10;99.90;;;;;;5074242;28;19909;-83
2022/09/12 04:42:40;;;;;;;;;;;15.10;99.90;;;;;;5075448;28;19912;-83
2022/09/12 04:45:06;;;;;;;;;;;15.20;99.90;;;;;;5074151;28;19908;-83
2022/09/12 04:47:32;;;;;;;;;;;15.20;99.90;;;;;;5076397;28;20313;-83
2022/09/12 04:49:57;;;;;;;;;;;15.20;99.90;;;;;;5074468;28;20001;-84
2022/09/12 04:52:23;;;;;;;;;;;15.20;99.90;;;;;;5074845;28;19963;-83
2022/09/12 04:54:48;;;;;;;;;;;15.20;99.90;;;;;;5074531;28;20347;-83
2022/09/12 04:57:14;;;;;;;;;;;15.30;99.90;;;;;;5073338;28;20426;-84
2022/09/12 04:59:39;;;;;;;;;;;15.30;99.90;;;;;;5076327;28;19908;-84
2022/09/12 05:02:04;;;;;;;;;;;15.30;99.90;;;;;;5076040;28;19912;-83
2022/09/12 05:04:30;;;;;;;;;;;15.30;99.90;;;;;;5074728;28;19913;-83
2022/09/12 05:06:56;;;;;;;;;;;15.30;99.90;;;;;;5074210;28;19912;-84
2022/09/12 05:09:21;;;;;;;;;;;15.30;99.90;;;;;;5074929;28;20382;-83
2022/09/12 05:11:47;;;;;;;;;;;15.30;99.90;;;;;;5075442;28;20022;-83
2022/09/12 05:14:12;;;;;;;;;;;15.30;99.90;;;;;;5074590;28;19909;-83
2022/09/12 05:16:38;;;;;;;;;;;15.30;99.90;;;;;;5074606;28;19931;-85
2022/09/12 05:19:03;;;;;;;;;;;15.30;99.90;;;;;;5074754;28;20376;-83
2022/09/12 05:21:29;;;;;;;;;;;15.30;99.90;;;;;;5073824;28;20376;-84
2022/09/12 05:23:55;;;;;;;;;;;15.30;99.90;;;;;;5073755;28;19909;-85
2022/09/12 05:26:21;;;;;;;;;;;15.40;99.90;;;;;;5072623;28;20314;-84
2022/09/12 05:28:48;;;;;;;;;;;15.40;99.90;;;;;;5072979;28;20427;-83
2022/09/12 05:31:15;;;;;;;;;;;15.40;99.90;;;;;;5074114;28;19908;-83
2022/09/12 05:33:41;;;;;;;;;;;15.50;99.90;;;;;;5072781;28;20128;-83
2022/09/12 05:36:08;;;;;;;;;;;15.50;99.90;;;;;;5073944;28;19995;-83
2022/09/12 05:38:34;;;;;;;;;;;15.60;99.90;;;;;;5073048;28;19916;-83
2022/09/12 05:41:05;;;;;;;;;;;15.60;99.90;;;;;;5072888;28;19982;-85
2022/09/12 05:43:31;;;;;;;;;;;15.70;99.90;;;;;;5074455;28;19915;-84
2022/09/12 05:46:00;;;;;;;;;;;15.80;99.90;;;;;;5071803;28;19917;-83
2022/09/12 05:48:27;;;;;;;;;;;15.80;99.90;;;;;;5072270;28;19959;-85
2022/09/12 05:50:57;;;;;;;;;;;15.90;99.90;;;;;;5072041;28;19923;-82
2022/09/12 05:53:27;;;;;;;;;;;15.90;99.90;;;;;;5073427;28;19927;-83
2022/09/12 05:56:06;;;;;;;;;;;16.00;99.90;;;;;;5071154;28;19909;-83
2022/09/12 05:58:32;;;;;;;;;;;16.10;99.90;;;;;;5073475;28;20379;-84
2022/09/12 06:01:02;;;;;;;;;;;16.20;99.90;;;;;;5071948;28;19908;-84
2022/09/12 06:03:27;;;;;;;;;;;16.30;99.90;;;;;;5073273;28;19992;-82
2022/09/12 06:05:53;;;;;;;;;;;16.40;99.90;;;;;;5072569;28;19967;-82
2022/09/12 06:08:18;;;;;;;;;;;16.40;99.90;;;;;;5073083;28;19908;-82
2022/09/12 06:10:44;;;;;;;;;;;16.50;99.90;;;;;;5071528;28;19918;-82
2022/09/12 06:13:09;;;;;;;;;;;16.60;99.90;;;;;;5071472;28;19951;-82
2022/09/12 06:15:36;;;;;;;;;;;16.60;99.90;;;;;;5071005;28;19909;-83
2022/09/12 06:18:02;;;;;;;;;;;16.70;99.90;;;;;;5072609;28;19940;-82
2022/09/12 06:20:27;;;;;;;;;;;16.70;99.90;;;;;;5071111;28;20393;-83
2022/09/12 06:22:52;;;;;;;;;;;16.80;99.90;;;;;;5071146;28;19930;-82
2022/09/12 06:25:18;;;;;;;;;;;16.80;99.90;;;;;;5070986;28;19909;-82
2022/09/12 06:27:44;;;;;;;;;;;16.80;99.90;;;;;;5071820;28;19940;-82
2022/09/12 06:30:10;;;;;;;;;;;16.80;99.90;;;;;;5071087;28;19976;-81
2022/09/12 06:32:36;;;;;;;;;;;16.80;99.90;;;;;;5070994;28;19958;-81
2022/09/12 06:35:02;;;;;;;;;;;16.90;99.90;;;;;;5070971;28;19909;-81
2022/09/12 06:37:28;;;;;;;;;;;16.90;99.90;;;;;;5070728;28;19944;-82
2022/09/12 06:39:53;;;;;;;;;;;17.00;99.90;;;;;;5072223;28;19908;-82
2022/09/12 06:42:19;;;;;;;;;;;17.10;99.90;;;;;;5072263;28;19912;-82
2022/09/12 06:44:44;;;;;;;;;;;17.20;99.90;;;;;;5070941;28;19963;-81
2022/09/12 06:47:10;;;;;;;;;;;17.20;99.90;;;;;;5070566;28;19912;-82
2022/09/12 06:49:36;;;;;;;;;;;17.30;99.90;;;;;;5071904;28;19916;-81
2022/09/12 06:52:01;;;;;;;;;;;17.40;99.90;;;;;;5072079;28;20553;-83
2022/09/12 06:54:27;;;;;;;;;;;17.40;99.90;;;;;;5070849;28;19962;-81
2022/09/12 06:56:52;;;;;;;;;;;17.40;99.90;;;;;;5071479;28;19984;-81
2022/09/12 06:59:18;;;;;;;;;;;17.50;99.90;;;;;;5076174;28;19916;-81
2022/09/12 07:01:44;;;;;;;;;;;17.60;99.90;;;;;;5075762;28;19934;-81
2022/09/12 07:04:10;;;;;;;;;;;17.70;99.90;;;;;;5074817;28;19917;-81
2022/09/12 07:06:37;;;;;;;;;;;17.80;99.90;;;;;;5073978;28;19908;-81
2022/09/12 07:09:03;;;;;;;;;;;17.90;99.90;;;;;;5074983;28;19915;-81
2022/09/12 07:11:30;;;;;;;;;;;17.90;99.90;;;;;;5075915;28;20007;-81
2022/09/12 07:13:57;;;;;;;;;;;18.00;99.90;;;;;;5075867;28;19915;-82
2022/09/12 07:16:22;;;;;;;;;;;18.00;99.90;;;;;;5073858;28;20253;-82
2022/09/12 07:18:52;;;;;;;;;;;17.90;99.90;;;;;;5075941;28;19915;-80
2022/09/12 07:21:18;;;;;;;;;;;17.90;99.90;;;;;;5074717;28;20372;-83
2022/09/12 07:23:44;;;;;;;;;;;18.00;99.90;;;;;;5074564;28;19915;-84
2022/09/12 07:26:10;;;;;;;;;;;17.90;99.90;;;;;;5074895;28;20284;-82
2022/09/12 07:28:36;;;;;;;;;;;18.00;99.90;;;;;;5074394;28;20295;-83
2022/09/12 07:31:06;;;;;;;;;;;18.10;99.90;;;;;;5074357;28;19915;-81
2022/09/12 07:33:31;;;;;;;;;;;18.30;99.90;;;;;;5074367;28;19999;-82
2022/09/12 07:36:03;;;;;;;;;;;18.30;99.90;;;;;;5075051;28;20383;-83
2022/09/12 07:38:29;;;;;;;;;;;18.30;99.90;;;;;;5074233;28;20318;-83
2022/09/12 07:40:55;;;;;;;;;;;18.40;99.90;;;;;;5075294;28;19909;-82
2022/09/12 07:43:21;;;;;;;;;;;18.40;99.90;;;;;;5075473;28;19965;-83
2022/09/12 07:45:46;;;;;;;;;;;18.60;99.90;;;;;;5073363;28;20284;-83
2022/09/12 07:48:12;;;;;;;;;;;18.70;99.90;;;;;;5075385;28;19915;-83
2022/09/12 07:50:38;;;;;;;;;;;18.90;99.90;;;;;;5073872;28;19963;-83
2022/09/12 07:53:04;;;;;;;;;;;19.00;99.90;;;;;;5075716;28;19917;-84
2022/09/12 07:55:30;;;;;;;;;;;19.10;99.90;;;;;;5073911;28;20368;-83
2022/09/12 07:57:55;;;;;;;;;;;19.10;99.90;;;;;;5074507;28;20276;-82
2022/09/12 08:00:20;;;;;;;;;;;19.20;99.90;;;;;;5073387;28;19958;-83
2022/09/12 08:02:52;;;;;;;;;;;19.40;99.90;;;;;;5074762;28;19909;-83
2022/09/12 08:05:19;;;;;;;;;;;19.50;99.90;;;;;;5073722;28;19958;-84
2022/09/12 08:07:45;;;;;;;;;;;19.60;99.90;;;;;;5074350;28;19915;-82
2022/09/12 08:10:11;;;;;;;;;;;19.50;99.90;;;;;;5074277;28;19913;-83
2022/09/12 08:12:36;;;;;;;;;;;19.50;99.90;;;;;;5074898;28;19913;-81
2022/09/12 08:15:02;;;;;;;;;;;19.50;99.90;;;;;;5073648;28;19908;-83
2022/09/12 08:17:28;;;;;;;;;;;19.70;99.90;;;;;;5072727;28;19974;-83
2022/09/12 08:19:53;;;;;;;;;;;19.90;99.90;;;;;;5074666;28;19957;-84
2022/09/12 08:22:20;;;;;;;;;;;20.10;99.90;;;;;;5073567;28;19908;-83
2022/09/12 08:24:46;;;;;;;;;;;20.20;99.90;;;;;;5074569;28;19915;-83
2022/09/12 08:27:12;;;;;;;;;;;20.30;99.90;;;;;;5073200;28;19909;-84
2022/09/12 08:29:37;;;;;;;;;;;20.40;99.90;;;;;;5072908;28;19916;-83
2022/09/12 08:32:03;;;;;;;;;;;20.50;99.90;;;;;;5074446;28;20454;-83
2022/09/12 08:34:28;;;;;;;;;;;20.60;99.90;;;;;;5073058;28;19909;-83
2022/09/12 08:36:54;;;;;;;;;;;20.50;99.90;;;;;;5073838;28;19999;-83
2022/09/12 08:39:20;;;;;;;;;;;20.50;99.90;;;;;;5074355;28;19908;-82
2022/09/12 08:41:46;;;;;;;;;;;20.50;99.90;;;;;;5072907;28;19943;-82
2022/09/12 08:44:21;;;;;;;;;;;20.60;99.90;;;;;;5072953;28;19909;-84
2022/09/12 08:46:46;;;;;;;;;;;20.60;99.90;;;;;;5072221;28;20318;-84
2022/09/12 08:49:14;;;;;;;;;;;20.80;99.90;;;;;;5072608;28;19919;-84
2022/09/12 08:51:40;;;;;;;;;;;20.90;99.90;;;;;;5130069;22;19923;-88
2022/09/12 08:54:12;;;;;;;;;;;20.90;99.90;;;;;;5093583;28;19951;-88
2022/09/12 08:56:38;;;;;;;;;;;21.10;99.90;;;;;;5092941;28;20007;-88
2022/09/12 08:59:03;;;;;;;;;;;21.20;99.90;;;;;;5094674;28;19957;-87
2022/09/12 09:01:30;;;;;;;;;;;21.30;99.90;;;;;;5093330;28;20294;-86
2022/09/12 09:04:15;;;;;;;;;;;21.50;99.90;;;;;;5093358;28;19912;-87
2022/09/12 09:07:13;;;;;;;;;;;21.60;99.90;;;;;;5092723;28;20385;-87
2022/09/12 09:09:44;;;;;;;;;;;21.80;99.90;;;;;;5049268;28;20367;-87
2022/09/12 09:12:19;;;;;;;;;;;22.30;99.90;;;;;;5093146;28;19972;-87
2022/09/12 09:15:08;;;;;;;;;;;23.60;99.90;;;;;;5093456;28;20382;-88
2022/09/12 09:17:34;;;;;;;;;;;;;;;;;;5092252;28;19909;-88
2022/09/12 09:20:21;;;;;;;;;;;27.60;99.90;;;;;;5092779;28;19909;-88
2022/09/12 09:22:54;;;;;;;;;;;29.00;99.90;;;;;;5092559;28;19908;-89
2022/09/12 09:25:22;;;;;;;;;;;31.00;99.90;;;;;;5093000;28;19908;-87
2022/09/12 09:27:56;;;;;;;;;;;32.70;99.90;;;;;;5092242;28;19912;-87
2022/09/12 09:30:21;;;;;;;;;;;33.80;93.70;;;;;;5092658;28;20170;-88
2022/09/12 09:32:52;;;;;;;;;;;34.80;88.80;;;;;;5093603;28;19969;-88
2022/09/12 09:35:24;;;;;;;;;;;35.80;81.80;;;;;;5092608;28;19953;-87
2022/09/12 09:37:59;;;;;;;;;;;36.80;74.60;;;;;;5093372;28;19908;-89
2022/09/12 09:40:43;;;;;;;;;;;37.70;68.60;;;;;;5092628;28;19999;-89
2022/09/12 09:43:15;;;;;;;;;;;37.50;59.50;;;;;;5093967;28;19908;-88
2022/09/12 09:45:40;;;;;;;;;;;36.30;63.10;;;;;;5093285;28;19908;-89
2022/09/12 09:48:09;;;;;;;;;;;35.50;62.00;;;;;;5092421;28;19908;-87
2022/09/12 09:50:35;;;;;;;;;;;35.10;62.80;;;;;;5093464;28;19916;-89
2022/09/12 09:56:17;;;;;;;;;;;34.60;62.70;;;;;;5093065;28;19958;-88
2022/09/12 09:58:43;;;;;;;;;;;34.10;64.50;;;;;;5092398;28;19962;-88
2022/09/12 10:01:14;;;;;;;;;;;33.60;63.50;;;;;;5092203;28;19908;-88
2022/09/12 10:03:46;;;;;;;;;;;32.90;66.50;;;;;;5092305;28;19954;-88
2022/09/12 10:06:31;;;;;;;;;;;32.10;69.00;;;;;;5091451;28;19958;-89
2022/09/12 10:09:26;;;;;;;;;;;31.20;68.70;;;;;;5092192;28;19908;-88
2022/09/12 10:11:52;;;;;;;;;;;30.40;73.70;;;;;;5074355;28;19919;-87
2022/09/12 10:14:37;;;;;;;;;;;29.50;78.30;;;;;;5092217;28;19951;-88
2022/09/12 10:17:23;;;;;;;;;;;29.00;82.70;;;;;;5091409;28;20020;-88
2022/09/12 10:19:48;;;;;;;;;;;28.50;90.10;;;;;;5091402;28;19908;-87
2022/09/12 10:22:18;;;;;;;;;;;28.20;90.00;;;;;;5092019;28;19915;-87
2022/09/12 10:25:07;;;;;;;;;;;27.90;87.90;;;;;;5091879;28;19912;-88
2022/09/12 10:27:32;;;;;;;;;;;27.60;91.20;;;;;;5090781;28;20290;-86
2022/09/12 10:29:58;;;;;;;;;;;27.50;94.40;;;;;;5091746;28;20002;-87
2022/09/12 10:32:28;;;;;;;;;;;27.30;96.10;;;;;;5091389;28;19919;-88
2022/09/12 10:34:55;;;;;;;;;;;27.20;95.00;;;;;;5092871;28;19947;-88
2022/09/12 10:37:32;;;;;;;;;;;27.00;97.00;;;;;;5091148;28;19908;-87
2022/09/12 10:39:58;;;;;;;;;;;26.80;97.80;;;;;;5090468;28;19919;-87
2022/09/12 10:42:41;;;;;;;;;;;26.60;99.90;;;;;;5076264;28;20267;-87
2022/09/12 10:45:16;;;;;;;;;;;26.50;99.90;;;;;;5093069;28;19908;-87
2022/09/12 10:47:42;;;;;;;;;;;26.30;99.90;;;;;;5091313;28;19951;-88
2022/09/12 10:50:26;;;;;;;;;;;26.30;99.90;;;;;;5091476;28;19920;-88
2022/09/12 10:53:11;;;;;;;;;;;26.20;99.90;;;;;;5091566;28;19961;-87
2022/09/12 10:55:36;;;;;;;;;;;26.10;99.90;;;;;;5091451;28;19914;-88
2022/09/12 10:58:11;;;;;;;;;;;26.10;99.90;;;;;;5091814;28;19999;-88
2022/09/12 11:00:39;;;;;;;;;;;26.10;99.90;;;;;;5091596;28;19912;-87
2022/09/12 11:03:14;;;;;;;;;;;26.00;99.90;;;;;;5091713;28;19939;-87
2022/09/12 11:05:49;;;;;;;;;;;26.00;99.90;;;;;;5091458;28;20331;-87
2022/09/12 11:08:23;;;;;;;;;;;26.00;99.90;;;;;;5092793;28;19908;-87
2022/09/12 11:11:07;;;;;;;;;;;26.00;99.90;;;;;;5091690;28;19957;-86
2022/09/12 11:13:56;;;;;;;;;;;26.00;99.90;;;;;;5092601;28;19912;-86
2022/09/12 11:16:41;;;;;;;;;;;26.00;99.50;;;;;;5090820;28;19994;-87
2022/09/12 11:19:18;;;;;;;;;;;26.00;99.90;;;;;;5091491;28;19955;-87
2022/09/12 11:21:55;;;;;;;;;;;26.00;99.90;;;;;;5091378;28;19954;-87
2022/09/12 11:24:27;;;;;;;;;;;26.00;99.90;;;;;;5092435;28;19908;-86
2022/09/12 11:26:59;;;;;;;;;;;26.00;99.90;;;;;;5090642;28;19908;-87
2022/09/12 11:29:32;;;;;;;;;;;26.00;99.10;;;;;;5091318;28;20015;-86
2022/09/12 11:32:16;;;;;;;;;;;26.00;99.90;;;;;;5091208;28;19931;-85
2022/09/12 11:34:54;;;;;;;;;;;26.10;99.80;;;;;;5091102;28;19909;-86
2022/09/12 11:37:33;;;;;;;;;;;26.00;98.50;;;;;;5090545;28;19930;-85
2022/09/12 11:40:04;;;;;;;;;;;26.10;99.50;;;;;;5091266;28;19908;-87
2022/09/12 11:42:33;;;;;;;;;;;26.10;97.70;;;;;;5091126;28;19909;-86
2022/09/12 11:45:13;;;;;;;;;;;26.20;98.40;;;;;;5092750;28;19908;-86
2022/09/12 11:47:41;;;;;;;;;;;26.10;96.40;;;;;;5093844;28;19984;-86
2022/09/12 11:50:17;;;;;;;;;;;26.20;96.40;;;;;;5095385;28;19932;-85
2022/09/12 11:52:42;;;;;;;;;;;26.30;96.70;;;;;;5094348;28;19915;-86
2022/09/12 11:55:16;;;;;;;;;;;26.40;97.70;;;;;;5094210;28;20364;-86
2022/09/12 11:57:48;;;;;;;;;;;26.40;96.20;;;;;;5093850;28;19948;-87
2022/09/12 12:00:13;;;;;;;;;;;26.60;94.70;;;;;;5094220;28;19909;-85
2022/09/12 12:02:42;;;;;;;;;;;26.60;95.50;;;;;;5095634;28;19934;-86
2022/09/12 12:05:14;;;;;;;;;;;26.60;94.50;;;;;;5094311;28;20007;-86
2022/09/12 12:07:41;;;;;;;;;;;26.70;95.40;;;;;;5093648;28;20383;-86
2022/09/12 12:10:20;;;;;;;;;;;26.70;95.00;;;;;;5093816;28;19908;-87
2022/09/12 12:12:46;;;;;;;;;;;26.90;95.70;;;;;;5094231;28;19919;-86
2022/09/12 12:15:13;;;;;;;;;;;27.10;94.80;;;;;;5095228;28;19909;-86
2022/09/12 12:17:39;;;;;;;;;;;27.10;95.50;;;;;;5093341;28;19908;-88
2022/09/12 12:20:05;;;;;;;;;;;27.20;95.30;;;;;;5093858;28;19908;-87
2022/09/12 12:22:30;;;;;;;;;;;27.30;93.90;;;;;;5095437;28;20286;-88
2022/09/12 12:25:11;;;;;;;;;;;27.30;95.30;;;;;;5093797;28;19908;-88
2022/09/12 12:27:44;;;;;;;;;;;27.40;94.00;;;;;;5093347;28;20324;-87
2022/09/12 12:30:30;;;;;;;;;;;27.60;93.90;;;;;;5093713;28;20389;-87
2022/09/12 12:33:09;;;;;;;;;;;27.60;93.40;;;;;;5093555;28;19962;-87
2022/09/12 12:35:34;;;;;;;;;;;27.60;91.80;;;;;;5094759;28;19908;-87
2022/09/12 12:38:00;;;;;;;;;;;27.50;92.30;;;;;;5093232;28;19909;-87
2022/09/12 12:40:27;;;;;;;;;;;27.50;93.60;;;;;;5093891;28;19908;-88
2022/09/12 12:42:57;;;;;;;;;;;27.40;93.90;;;;;;5093426;28;19908;-86
2022/09/12 12:45:25;;;;;;;;;;;27.40;91.70;;;;;;5094858;28;20002;-87
2022/09/12 12:47:55;;;;;;;;;;;27.40;91.70;;;;;;5092894;28;19953;-87
2022/09/12 12:50:25;;;;;;;;;;;27.50;92.20;;;;;;5094343;28;19912;-87
2022/09/12 12:52:51;;;;;;;;;;;27.80;93.00;;;;;;5094306;28;19916;-87
2022/09/12 12:55:25;;;;;;;;;;;27.80;90.90;;;;;;5092922;28;19912;-87
2022/09/12 12:57:50;;;;;;;;;;;27.80;90.10;;;;;;5092725;28;19908;-86
2022/09/12 13:00:18;;;;;;;;;;;27.70;91.70;;;;;;5094524;28;19908;-87
2022/09/12 13:03:10;;;;;;;;;;;27.60;90.50;;;;;;5094559;28;19931;-86
2022/09/12 13:05:44;;;;;;;;;;;27.60;90.80;;;;;;5061668;28;19943;-88
2022/09/12 13:08:18;;;;;;;;;;;27.80;91.10;;;;;;5093138;28;19912;-86
2022/09/12 13:10:48;;;;;;;;;;;28.10;90.10;;;;;;5094149;28;19912;-88
2022/09/12 13:13:20;;;;;;;;;;;28.60;90.30;;;;;;5078458;28;20577;-87
2022/09/12 13:15:47;;;;;;;;;;;29.10;88.40;;;;;;5087056;28;19915;-90
2022/09/12 13:18:19;;;;;;;;;;;29.60;87.50;;;;;;5092905;28;19914;-89
2022/09/12 13:20:53;;;;;;;;;;;29.90;83.30;;;;;;5092591;28;19957;-89
2022/09/12 13:23:23;;;;;;;;;;;29.90;86.20;;;;;;5092861;28;19908;-89
2022/09/12 13:25:56;;;;;;;;;;;29.60;83.00;;;;;;5091812;28;19908;-89
2022/09/12 13:28:22;;;;;;;;;;;29.40;82.50;;;;;;5091550;28;19994;-88
2022/09/12 13:30:54;;;;;;;;;;;29.20;82.70;;;;;;5063078;28;19974;-90
2022/09/12 13:33:27;;;;;;;;;;;29.10;82.10;;;;;;5070896;28;19920;-89
2022/09/12 13:35:55;;;;;;;;;;;29.00;83.50;;;;;;5072651;28;19912;-89
2022/09/12 13:38:29;;;;;;;;;;;29.30;85.80;;;;;;5072489;28;19908;-88
2022/09/12 13:43:58;;;;;;;;;;;29.20;84.20;;;;;;5093692;28;19961;-89
2022/09/12 13:46:29;;;;;;;;;;;29.10;87.20;;;;;;5091610;28;19912;-89
2022/09/12 13:48:56;;;;;;;;;;;29.00;83.00;;;;;;5092724;28;19908;-89
2022/09/12 13:51:24;;;;;;;;;;;28.90;82.40;;;;;;5092384;28;20412;-87
2022/09/12 13:53:51;;;;;;;;;;;29.00;85.10;;;;;;5091094;28;19919;-89
2022/09/12 13:56:17;;;;;;;;;;;28.90;82.50;;;;;;5087633;28;19973;-90
2022/09/12 13:58:56;;;;;;;;;;;28.80;83.50;;;;;;5084886;28;19998;-88
2022/09/12 14:01:23;;;;;;;;;;;28.80;83.00;;;;;;5083498;28;19931;-88
2022/09/12 14:06:43;;;;;;;;;;;28.90;82.20;;;;;;5092627;28;19914;-89
2022/09/12 14:09:12;;;;;;;;;;;28.90;83.40;;;;;;5091720;28;19995;-88
2022/09/12 14:11:38;;;;;;;;;;;28.90;85.80;;;;;;5091285;28;19908;-88
2022/09/12 14:14:05;;;;;;;;;;;29.00;85.00;;;;;;5091946;28;20283;-89
2022/09/12 14:16:37;;;;;;;;;;;29.10;82.50;;;;;;5091102;28;20272;-88
2022/09/12 14:19:04;;;;;;;;;;;29.10;81.60;;;;;;5091523;28;19908;-87
2022/09/12 14:21:34;;;;;;;;;;;29.30;81.40;;;;;;5091349;28;19916;-87
2022/09/12 14:24:00;;;;;;;;;;;29.80;88.00;;;;;;5071605;28;19909;-89
2022/09/12 14:26:31;;;;;;;;;;;30.70;79.90;;;;;;5071299;28;19909;-88
2022/09/12 14:28:59;;;;;;;;;;;31.40;74.10;;;;;;5070411;28;19969;-87
2022/09/12 14:31:29;;;;;;;;;;;32.00;75.30;;;;;;5086471;28;19908;-88
2022/09/12 14:33:56;;;;;;;;;;;33.20;76.70;;;;;;5087671;28;20256;-84
2022/09/12 14:36:21;;;;;;;;;;;35.10;66.40;;;;;;5070476;28;20371;-84
2022/09/12 14:38:52;;;;;;;;;;;36.80;66.60;;;;;;5072175;28;19920;-85
2022/09/12 14:41:23;;;;;;;;;;;38.10;57.30;;;;;;5071911;28;19947;-86